Time;durP1;ratioP1;P1;durP2;ratioP2;P2;SDS_P1;SDS_P2;PMS_P1;PMS_P2;Temp;Humidity;BMP_temperature;BMP_pressure;BME280_temperature;BME280_humidity;BME280_pressure;Samples;Min_cycle;Max_cycle;Signal;HPM_P1;HPM_P2
2023/12/29 00:02:14;;;;;;;2.20;2.10;;;9.70;48.90;;;;;;5030776;28;20254;-67
2023/12/29 00:04:42;;;;;;;2.33;2.23;;;9.70;49.40;;;;;;5028152;28;20291;-68
2023/12/29 00:07:08;;;;;;;2.10;2.00;;;9.70;49.70;;;;;;5025981;28;20219;-67
2023/12/29 00:09:40;;;;;;;2.33;2.20;;;9.70;49.70;;;;;;5026127;28;20242;-69
2023/12/29 00:12:07;;;;;;;2.30;2.20;;;9.70;49.70;;;;;;5025701;28;20237;-67
2023/12/29 00:14:33;;;;;;;2.10;2.00;;;9.60;49.70;;;;;;5031172;28;20210;-69
2023/12/29 00:17:00;;;;;;;2.27;2.13;;;9.60;50.40;;;;;;5027966;28;20620;-68
2023/12/29 00:19:26;;;;;;;2.00;1.90;;;9.60;50.60;;;;;;5033428;28;20329;-67
2023/12/29 00:21:53;;;;;;;2.00;1.90;;;9.60;50.70;;;;;;5025545;28;20230;-68
2023/12/29 00:24:19;;;;;;;3.20;2.10;;;9.60;50.90;;;;;;5025825;28;20674;-69
2023/12/29 00:26:47;;;;;;;2.67;1.93;;;9.60;50.90;;;;;;5022157;28;20223;-68
2023/12/29 00:29:14;;;;;;;2.00;1.90;;;9.50;51.00;;;;;;5031433;28;21063;-67
2023/12/29 00:31:41;;;;;;;1.93;1.83;;;9.50;51.10;;;;;;5024659;28;20206;-67
2023/12/29 00:34:07;;;;;;;2.30;2.10;;;9.50;51.10;;;;;;5029609;28;20235;-67
2023/12/29 00:36:34;;;;;;;2.10;2.00;;;9.40;51.30;;;;;;5033373;28;20756;-68
2023/12/29 00:39:01;;;;;;;1.80;1.70;;;9.40;51.10;;;;;;5024301;28;20202;-68
2023/12/29 00:41:27;;;;;;;2.00;1.90;;;9.40;51.10;;;;;;5012291;28;20306;-68
2023/12/29 00:43:54;;;;;;;1.90;1.80;;;9.40;51.20;;;;;;5029273;28;20202;-68
2023/12/29 00:46:20;;;;;;;2.07;1.97;;;9.50;51.10;;;;;;5034594;28;20225;-67
2023/12/29 00:48:47;;;;;;;2.10;2.00;;;9.40;51.00;;;;;;5030892;28;20234;-69
2023/12/29 00:51:13;;;;;;;2.50;2.30;;;9.40;50.80;;;;;;5028006;28;20326;-68
2023/12/29 00:53:40;;;;;;;2.20;2.00;;;9.30;50.80;;;;;;5026401;28;20203;-67
2023/12/29 00:56:06;;;;;;;2.40;2.20;;;9.30;50.80;;;;;;5026919;28;20252;-68
2023/12/29 00:58:33;;;;;;;2.40;2.20;;;9.30;50.30;;;;;;5028806;28;20206;-67
2023/12/29 01:00:59;;;;;;;2.23;2.03;;;9.20;50.60;;;;;;5022957;28;20775;-68
2023/12/29 01:03:26;;;;;;;2.40;2.20;;;9.20;50.50;;;;;;5030865;28;20198;-68
2023/12/29 01:05:52;;;;;;;2.50;2.17;;;9.20;50.70;;;;;;5032282;28;20269;-67
2023/12/29 01:08:19;;;;;;;2.70;2.50;;;9.10;50.40;;;;;;5026045;28;20266;-68
2023/12/29 01:10:45;;;;;;;3.23;2.17;;;9.00;50.40;;;;;;5027429;28;20624;-67
2023/12/29 01:13:12;;;;;;;2.50;2.30;;;9.00;50.50;;;;;;5032561;28;20680;-68
2023/12/29 01:15:40;;;;;;;2.77;2.57;;;9.00;50.70;;;;;;5026709;28;20265;-67
2023/12/29 01:18:06;;;;;;;2.53;2.33;;;9.00;50.50;;;;;;5029940;28;20224;-67
2023/12/29 01:20:33;;;;;;;2.20;2.00;;;8.90;50.40;;;;;;5012136;28;20250;-67
2023/12/29 01:22:59;;;;;;;2.50;2.30;;;8.90;50.90;;;;;;5027653;28;20205;-66
2023/12/29 01:25:26;;;;;;;4.70;2.67;;;8.90;50.30;;;;;;5028546;28;20234;-67
2023/12/29 01:27:53;;;;;;;3.13;2.33;;;8.90;50.20;;;;;;5030745;28;20198;-69
2023/12/29 01:30:19;;;;;;;2.97;2.37;;;8.90;50.40;;;;;;5033762;28;20207;-68
2023/12/29 01:32:46;;;;;;;2.50;2.33;;;8.80;50.40;;;;;;5033356;28;20260;-67
2023/12/29 01:35:12;;;;;;;2.70;2.50;;;8.80;50.60;;;;;;5025036;28;20238;-66
2023/12/29 01:37:39;;;;;;;2.30;2.20;;;8.80;50.50;;;;;;5026480;28;20260;-68
2023/12/29 01:40:05;;;;;;;2.90;2.60;;;8.70;50.50;;;;;;5026602;28;20266;-69
2023/12/29 01:42:32;;;;;;;3.00;2.80;;;8.70;50.50;;;;;;5030908;28;20669;-67
2023/12/29 01:44:58;;;;;;;2.37;2.23;;;8.60;50.60;;;;;;5031848;28;20226;-68
2023/12/29 01:47:25;;;;;;;3.00;2.80;;;8.60;50.70;;;;;;5028334;28;20271;-68
2023/12/29 01:49:51;;;;;;;2.63;2.43;;;8.60;50.70;;;;;;5024039;28;20238;-68
2023/12/29 01:52:18;;;;;;;3.00;2.80;;;8.60;50.50;;;;;;5023449;28;20209;-70
2023/12/29 01:54:45;;;;;;;3.00;2.47;;;8.60;50.40;;;;;;5024493;28;20225;-69
2023/12/29 01:57:11;;;;;;;2.77;2.57;;;8.60;50.40;;;;;;5020810;28;20213;-67
2023/12/29 01:59:38;;;;;;;3.40;3.10;;;8.60;50.40;;;;;;5026547;28;20216;-67
2023/12/29 02:02:04;;;;;;;3.13;2.83;;;8.60;50.30;;;;;;5023279;28;20229;-69
2023/12/29 02:04:31;;;;;;;2.90;2.70;;;8.60;50.20;;;;;;5031169;28;20201;-69
2023/12/29 02:06:57;;;;;;;2.90;2.70;;;8.60;50.20;;;;;;5030997;28;20260;-68
2023/12/29 02:09:24;;;;;;;2.97;2.77;;;8.60;49.80;;;;;;5020757;28;20214;-68
2023/12/29 02:11:50;;;;;;;3.03;2.73;;;8.60;49.80;;;;;;5020936;28;20261;-67
2023/12/29 02:14:17;;;;;;;4.23;2.80;;;8.50;49.60;;;;;;5027533;28;20215;-70
2023/12/29 02:16:43;;;;;;;3.27;2.77;;;8.50;49.90;;;;;;5024388;28;20229;-68
2023/12/29 02:19:10;;;;;;;2.80;2.60;;;8.50;49.70;;;;;;5026633;28;20202;-69
2023/12/29 02:21:37;;;;;;;3.10;2.90;;;8.50;50.10;;;;;;5032089;28;20225;-68
2023/12/29 02:24:03;;;;;;;3.27;3.03;;;8.50;50.20;;;;;;5023144;28;20275;-67
2023/12/29 02:26:30;;;;;;;3.30;2.87;;;8.40;49.80;;;;;;5026038;28;20612;-68
2023/12/29 02:28:56;;;;;;;2.70;2.50;;;8.40;49.80;;;;;;5023660;28;20244;-68
2023/12/29 02:31:23;;;;;;;2.93;2.70;;;8.40;49.70;;;;;;5026441;28;20626;-68
2023/12/29 02:33:49;;;;;;;3.00;2.70;;;8.30;49.60;;;;;;5029678;28;20209;-67
2023/12/29 02:36:16;;;;;;;3.33;2.40;;;8.30;50.10;;;;;;5029526;28;20260;-68
2023/12/29 02:38:42;;;;;;;2.67;2.47;;;8.20;50.20;;;;;;5024927;28;20211;-69
2023/12/29 02:41:09;;;;;;;2.90;2.70;;;8.20;50.50;;;;;;5022109;28;20253;-68
2023/12/29 02:43:35;;;;;;;2.70;2.50;;;8.20;48.90;;;;;;5031347;28;20213;-68
2023/12/29 02:46:02;;;;;;;3.87;2.77;;;8.30;48.40;;;;;;5020402;28;20222;-67
2023/12/29 02:48:28;;;;;;;3.07;2.60;;;8.40;48.50;;;;;;5026391;28;20847;-68
2023/12/29 02:50:55;;;;;;;2.70;2.50;;;8.50;47.60;;;;;;5027513;28;20202;-68
2023/12/29 02:53:21;;;;;;;2.47;2.37;;;8.60;46.40;;;;;;5031090;28;20568;-67
2023/12/29 02:55:48;;;;;;;2.70;2.50;;;8.60;46.70;;;;;;5043359;28;20237;-69
2023/12/29 02:58:14;;;;;;;2.60;2.50;;;8.70;46.00;;;;;;5034796;28;20257;-67
2023/12/29 03:00:41;;;;;;;2.40;2.20;;;8.70;45.30;;;;;;5026212;28;20253;-67
2023/12/29 03:03:08;;;;;;;2.93;2.73;;;8.70;44.60;;;;;;5028788;28;20246;-68
2023/12/29 03:05:34;;;;;;;2.20;2.10;;;8.70;44.40;;;;;;5031362;28;20217;-67
2023/12/29 03:08:01;;;;;;;3.60;2.50;;;8.80;44.80;;;;;;5030411;28;20213;-67
2023/12/29 03:10:27;;;;;;;2.53;2.33;;;8.80;44.50;;;;;;5025654;28;20317;-67
2023/12/29 03:12:54;;;;;;;2.30;2.10;;;8.80;45.40;;;;;;5029184;28;20656;-67
2023/12/29 03:15:20;;;;;;;2.30;2.10;;;8.80;44.60;;;;;;5028372;28;20257;-68
2023/12/29 03:17:47;;;;;;;2.70;2.50;;;8.80;45.40;;;;;;5026013;28;20207;-67
2023/12/29 03:20:13;;;;;;;2.50;2.30;;;8.80;45.00;;;;;;5031065;28;20699;-67
2023/12/29 03:22:40;;;;;;;2.80;2.60;;;8.80;44.60;;;;;;5034334;28;20232;-67
2023/12/29 03:25:06;;;;;;;2.77;2.67;;;8.80;44.80;;;;;;5034494;28;20260;-68
2023/12/29 03:27:33;;;;;;;2.73;2.53;;;8.80;45.10;;;;;;5032639;28;20199;-68
2023/12/29 03:29:59;;;;;;;2.80;2.60;;;8.80;45.20;;;;;;5034484;28;20248;-71
2023/12/29 03:32:26;;;;;;;2.70;2.50;;;8.80;44.80;;;;;;5034500;28;20815;-67
2023/12/29 03:34:53;;;;;;;4.23;2.53;;;8.70;44.40;;;;;;5033971;28;20230;-68
2023/12/29 03:37:20;;;;;;;2.50;2.30;;;8.70;44.50;;;;;;5027370;28;20210;-68
2023/12/29 03:39:46;;;;;;;2.97;2.40;;;8.70;44.40;;;;;;5033506;28;20234;-67
2023/12/29 03:42:13;;;;;;;3.13;2.60;;;8.70;43.60;;;;;;5032203;28;20230;-67
2023/12/29 03:44:39;;;;;;;3.07;2.77;;;8.70;44.00;;;;;;5032091;28;20734;-69
2023/12/29 03:47:06;;;;;;;2.63;2.43;;;8.70;44.40;;;;;;5028281;28;20211;-67
2023/12/29 03:49:34;;;;;;;2.37;2.17;;;8.70;43.30;;;;;;5034214;28;20233;-68
2023/12/29 03:52:00;;;;;;;2.40;2.20;;;8.70;43.60;;;;;;5028425;28;20268;-69
2023/12/29 03:54:27;;;;;;;2.70;2.50;;;8.70;44.10;;;;;;5031603;28;20242;-66
2023/12/29 03:56:53;;;;;;;2.53;2.33;;;8.70;42.60;;;;;;5033678;28;20253;-67
2023/12/29 03:59:20;;;;;;;2.40;2.20;;;8.70;42.60;;;;;;5026039;28;20214;-68
2023/12/29 04:01:46;;;;;;;2.50;2.30;;;8.80;43.20;;;;;;5033006;28;20672;-69
2023/12/29 04:04:13;;;;;;;2.33;2.13;;;8.90;42.40;;;;;;5030898;28;20696;-68
2023/12/29 04:06:39;;;;;;;2.33;2.13;;;9.00;42.30;;;;;;5023283;28;20255;-67
2023/12/29 04:09:06;;;;;;;2.50;2.30;;;9.10;41.40;;;;;;5030385;28;20664;-67
2023/12/29 04:11:32;;;;;;;2.43;2.23;;;9.20;41.30;;;;;;5025020;28;20746;-67
2023/12/29 04:13:59;;;;;;;2.87;2.67;;;9.30;40.40;;;;;;5026625;28;20234;-69
2023/12/29 04:16:25;;;;;;;2.83;2.63;;;9.30;41.10;;;;;;5025458;28;20264;-67
2023/12/29 04:18:52;;;;;;;2.40;2.20;;;9.40;40.70;;;;;;5025609;28;20230;-69
2023/12/29 04:21:18;;;;;;;2.63;2.10;;;9.40;40.40;;;;;;5025541;28;20253;-68
2023/12/29 04:23:45;;;;;;;2.33;2.13;;;9.40;40.40;;;;;;5027190;28;20226;-67
2023/12/29 04:26:11;;;;;;;2.10;2.00;;;9.40;41.20;;;;;;5031055;28;20672;-68
2023/12/29 04:28:38;;;;;;;2.30;2.20;;;9.40;41.00;;;;;;5025804;28;20207;-67
2023/12/29 04:31:04;;;;;;;2.50;2.30;;;9.50;40.40;;;;;;5025752;28;20666;-68
2023/12/29 04:33:31;;;;;;;2.87;2.67;;;9.50;40.40;;;;;;5033215;28;20612;-69
2023/12/29 04:35:57;;;;;;;2.73;2.50;;;9.50;40.50;;;;;;5025156;28;20729;-67
2023/12/29 04:38:24;;;;;;;2.53;2.33;;;9.60;41.10;;;;;;5026280;28;20234;-69
2023/12/29 04:40:50;;;;;;;2.50;2.30;;;9.60;40.60;;;;;;5026532;28;20213;-68
2023/12/29 04:43:17;;;;;;;2.50;2.30;;;9.50;40.40;;;;;;5033433;28;20261;-68
2023/12/29 04:45:43;;;;;;;2.17;2.07;;;9.50;40.50;;;;;;5029072;28;20264;-67
2023/12/29 04:48:10;;;;;;;3.63;2.30;;;9.50;40.60;;;;;;5033263;28;20207;-67
2023/12/29 04:50:37;;;;;;;2.77;2.50;;;9.50;40.40;;;;;;5027172;28;20257;-68
2023/12/29 04:53:03;;;;;;;2.60;2.40;;;9.60;40.50;;;;;;5029839;28;20237;-68
2023/12/29 04:55:30;;;;;;;2.53;2.33;;;9.60;40.50;;;;;;5024983;28;20606;-68
2023/12/29 04:57:56;;;;;;;3.20;2.13;;;9.60;41.10;;;;;;5024754;28;20278;-68
2023/12/29 05:00:23;;;;;;;2.10;2.00;;;9.60;40.70;;;;;;5025221;28;20746;-68
2023/12/29 05:02:49;;;;;;;2.87;2.40;;;9.70;40.60;;;;;;5024946;28;20223;-69
2023/12/29 05:05:16;;;;;;;2.40;2.20;;;9.70;40.60;;;;;;5032622;28;20226;-68
2023/12/29 05:07:42;;;;;;;2.37;2.20;;;9.70;40.60;;;;;;5026303;28;20238;-68
2023/12/29 05:10:09;;;;;;;2.63;2.40;;;9.70;41.00;;;;;;5027996;28;20677;-68
2023/12/29 05:12:35;;;;;;;2.57;2.37;;;9.70;41.10;;;;;;5027476;28;20203;-68
2023/12/29 05:15:02;;;;;;;2.80;2.60;;;9.70;41.00;;;;;;5030364;28;20253;-69
2023/12/29 05:17:28;;;;;;;4.03;2.60;;;9.70;41.60;;;;;;5024685;28;20632;-67
2023/12/29 05:19:55;;;;;;;2.70;2.50;;;9.70;41.80;;;;;;5029831;28;20652;-68
2023/12/29 05:22:21;;;;;;;3.23;2.43;;;9.70;41.50;;;;;;5023936;28;20227;-67
2023/12/29 05:24:48;;;;;;;3.27;2.40;;;9.70;42.00;;;;;;5031704;28;20287;-67
2023/12/29 05:27:14;;;;;;;2.90;2.70;;;9.80;42.10;;;;;;5029072;28;20203;-68
2023/12/29 05:29:41;;;;;;;2.80;2.60;;;9.80;42.10;;;;;;5027721;28;20210;-67
2023/12/29 05:32:08;;;;;;;2.70;2.50;;;9.80;42.20;;;;;;5027954;28;20230;-68
2023/12/29 05:34:34;;;;;;;2.70;2.50;;;9.80;42.30;;;;;;5024413;28;20211;-67
2023/12/29 05:37:01;;;;;;;3.10;2.80;;;9.80;41.90;;;;;;5030134;28;20233;-68
2023/12/29 05:39:29;;;;;;;2.50;2.30;;;9.80;42.40;;;;;;5023389;28;20202;-68
2023/12/29 05:41:55;;;;;;;3.03;2.70;;;9.80;42.60;;;;;;5006228;28;20231;-68
2023/12/29 05:44:22;;;;;;;3.33;2.57;;;9.80;43.10;;;;;;5027336;28;20234;-67
2023/12/29 05:46:48;;;;;;;2.77;2.50;;;9.80;42.70;;;;;;5031372;28;20222;-67
2023/12/29 05:49:15;;;;;;;2.73;2.53;;;9.70;42.80;;;;;;5030051;28;20207;-67
2023/12/29 05:51:41;;;;;;;2.63;2.43;;;9.70;42.70;;;;;;5021368;28;20195;-71
2023/12/29 05:54:08;;;;;;;2.97;2.77;;;9.70;43.00;;;;;;5029018;28;20257;-68
2023/12/29 05:56:34;;;;;;;3.50;2.50;;;9.70;43.10;;;;;;5019577;28;20285;-68
2023/12/29 05:59:01;;;;;;;3.07;2.70;;;9.70;43.00;;;;;;5028624;28;20202;-67
2023/12/29 06:01:27;;;;;;;2.90;2.70;;;9.70;43.00;;;;;;5020271;28;20710;-67
2023/12/29 06:03:54;;;;;;;2.90;2.60;;;9.70;43.50;;;;;;5025811;28;20611;-69
2023/12/29 06:06:20;;;;;;;3.23;2.60;;;9.80;43.10;;;;;;5028734;28;20226;-68
2023/12/29 06:08:47;;;;;;;2.80;2.60;;;9.80;43.50;;;;;;5024829;28;20218;-69
2023/12/29 06:11:13;;;;;;;3.07;2.83;;;9.80;43.10;;;;;;5029767;28;20635;-67
2023/12/29 06:13:40;;;;;;;2.77;2.30;;;9.80;43.20;;;;;;5023656;28;20203;-68
2023/12/29 06:16:07;;;;;;;3.00;2.30;;;9.80;42.80;;;;;;5029728;28;20304;-69
2023/12/29 06:18:33;;;;;;;2.67;2.43;;;9.80;42.90;;;;;;5031420;28;20215;-68
2023/12/29 06:21:00;;;;;;;3.03;2.43;;;9.80;43.20;;;;;;5023641;28;20633;-68
2023/12/29 06:23:26;;;;;;;2.93;2.53;;;9.80;43.20;;;;;;5023589;28;20226;-67
2023/12/29 06:25:53;;;;;;;2.90;2.40;;;9.80;43.30;;;;;;5027276;28;20226;-69
2023/12/29 06:28:20;;;;;;;3.03;2.70;;;9.80;43.50;;;;;;5013099;28;20710;-67
2023/12/29 06:30:46;;;;;;;2.70;2.50;;;9.80;42.90;;;;;;5023586;28;20397;-68
2023/12/29 06:33:12;;;;;;;3.07;2.77;;;9.70;43.10;;;;;;5022442;28;20226;-68
2023/12/29 06:35:38;;;;;;;2.70;2.50;;;9.70;42.60;;;;;;5031147;28;20229;-68
2023/12/29 06:38:05;;;;;;;2.80;2.60;;;9.70;43.30;;;;;;5023608;28;20213;-68
2023/12/29 06:40:31;;;;;;;4.03;2.80;;;9.70;42.60;;;;;;5023435;28;20341;-67
2023/12/29 06:42:58;;;;;;;3.10;2.80;;;9.70;42.30;;;;;;5023000;28;20223;-68
2023/12/29 06:45:25;;;;;;;2.73;2.47;;;9.70;42.50;;;;;;5025725;28;20223;-68
2023/12/29 06:47:52;;;;;;;3.13;2.43;;;9.70;42.60;;;;;;5031393;28;20240;-67
2023/12/29 06:50:19;;;;;;;2.53;2.30;;;9.70;42.50;;;;;;5033541;28;20252;-68
2023/12/29 06:52:45;;;;;;;2.90;2.70;;;9.60;42.40;;;;;;5033213;28;20202;-67
2023/12/29 06:55:12;;;;;;;3.10;2.67;;;9.70;42.50;;;;;;5030847;28;20225;-67
2023/12/29 06:57:39;;;;;;;2.70;2.20;;;9.70;42.80;;;;;;5034757;28;20237;-69
2023/12/29 07:00:05;;;;;;;2.87;2.57;;;9.70;42.50;;;;;;5033766;28;20230;-67
2023/12/29 07:02:32;;;;;;;2.30;2.10;;;9.60;42.70;;;;;;5032017;28;20215;-68
2023/12/29 07:04:58;;;;;;;2.60;2.33;;;9.70;43.40;;;;;;5027043;28;20276;-68
2023/12/29 07:07:25;;;;;;;2.50;2.10;;;9.70;43.50;;;;;;5033233;28;20620;-69
2023/12/29 07:09:52;;;;;;;2.83;2.50;;;9.80;43.30;;;;;;5017228;28;20246;-68
2023/12/29 07:12:18;;;;;;;2.83;2.13;;;9.70;43.60;;;;;;5034769;28;20202;-67
2023/12/29 07:14:45;;;;;;;2.50;2.30;;;9.70;43.90;;;;;;5026699;28;20670;-68
2023/12/29 07:17:11;;;;;;;2.73;2.53;;;9.70;44.20;;;;;;5031489;28;20694;-67
2023/12/29 07:19:38;;;;;;;2.73;2.27;;;9.70;44.60;;;;;;5032334;28;20210;-68
2023/12/29 07:22:05;;;;;;;2.33;2.10;;;9.70;44.50;;;;;;5032763;28;20218;-68
2023/12/29 07:24:32;;;;;;;3.13;2.20;;;9.80;44.90;;;;;;5029163;28;20202;-68
2023/12/29 07:26:59;;;;;;;2.63;2.40;;;9.80;45.30;;;;;;5030001;28;20317;-67
2023/12/29 07:29:25;;;;;;;2.27;2.10;;;9.80;45.30;;;;;;5034905;28;20256;-67
2023/12/29 07:31:51;;;;;;;2.30;2.20;;;9.80;45.50;;;;;;5034615;28;20317;-68
2023/12/29 07:34:18;;;;;;;2.63;2.00;;;9.80;46.30;;;;;;5033084;28;20258;-68
2023/12/29 07:36:45;;;;;;;2.30;2.10;;;9.80;46.80;;;;;;5026033;28;20700;-68
2023/12/29 07:39:11;;;;;;;2.70;2.00;;;9.90;47.00;;;;;;5030474;28;20985;-67
2023/12/29 07:41:38;;;;;;;2.40;2.20;;;9.90;47.40;;;;;;5027623;28;20262;-67
2023/12/29 07:44:04;;;;;;;2.40;2.20;;;9.90;47.70;;;;;;5032704;28;20257;-67
2023/12/29 07:46:31;;;;;;;3.60;2.00;;;9.90;48.10;;;;;;5028637;28;20247;-68
2023/12/29 07:48:57;;;;;;;1.83;1.73;;;9.80;48.20;;;;;;5032774;28;20205;-68
2023/12/29 07:51:24;;;;;;;2.53;1.93;;;9.90;48.60;;;;;;5028329;28;20277;-67
2023/12/29 07:53:50;;;;;;;2.50;2.20;;;9.90;48.90;;;;;;5027565;28;20203;-66
2023/12/29 07:56:17;;;;;;;2.53;2.20;;;9.90;49.00;;;;;;5026858;28;20234;-67
2023/12/29 07:58:43;;;;;;;2.30;2.10;;;9.90;49.30;;;;;;5032006;28;20673;-68
2023/12/29 08:01:10;;;;;;;2.33;2.10;;;9.80;49.80;;;;;;5029199;28;20238;-68
2023/12/29 08:03:37;;;;;;;2.30;2.10;;;9.90;49.90;;;;;;5030579;28;20764;-67
2023/12/29 08:06:03;;;;;;;2.20;2.10;;;9.90;49.90;;;;;;5025565;28;20588;-67
2023/12/29 08:08:30;;;;;;;2.23;2.10;;;9.90;49.90;;;;;;5028894;28;20235;-69
2023/12/29 08:10:56;;;;;;;2.47;2.30;;;9.90;49.90;;;;;;5036361;28;20233;-69
2023/12/29 08:13:23;;;;;;;2.50;2.20;;;9.90;50.00;;;;;;5038831;28;20199;-68
2023/12/29 08:15:49;;;;;;;2.50;2.30;;;10.00;49.50;;;;;;5033969;28;20276;-67
2023/12/29 08:18:16;;;;;;;2.20;2.10;;;10.00;49.10;;;;;;5036957;28;20689;-67
2023/12/29 08:20:42;;;;;;;3.40;2.30;;;10.00;49.40;;;;;;5031334;28;20239;-71
2023/12/29 08:23:09;;;;;;;2.10;2.00;;;10.10;52.30;;;;;;5028289;28;20223;-68
2023/12/29 08:25:36;;;;;;;2.50;2.40;;;11.00;48.70;;;;;;5031381;28;20227;-68
2023/12/29 08:28:03;;;;;;;2.50;2.30;;;10.50;48.50;;;;;;5028268;28;20202;-68
2023/12/29 08:30:30;;;;;;;2.37;2.20;;;10.30;49.30;;;;;;5033422;28;20813;-70
2023/12/29 08:32:56;;;;;;;2.80;2.10;;;10.20;49.20;;;;;;5029084;28;20537;-68
2023/12/29 08:35:23;;;;;;;2.70;2.50;;;10.20;49.20;;;;;;5028810;28;20232;-68
2023/12/29 08:37:49;;;;;;;3.07;2.47;;;10.30;49.30;;;;;;5031757;28;20254;-68
2023/12/29 08:40:16;;;;;;;2.60;2.40;;;10.40;49.30;;;;;;5029749;28;20227;-69
2023/12/29 08:42:42;;;;;;;5.23;2.63;;;10.40;49.20;;;;;;5027257;28;20260;-67
2023/12/29 08:45:09;;;;;;;2.73;2.27;;;10.50;49.40;;;;;;5028428;28;20709;-67
2023/12/29 08:47:35;;;;;;;2.50;2.30;;;10.50;49.00;;;;;;5030661;28;20258;-66
2023/12/29 08:50:04;;;;;;;3.23;2.93;;;10.50;48.80;;;;;;5026725;28;20710;-67
2023/12/29 08:52:30;;;;;;;4.87;3.77;;;10.50;49.30;;;;;;5029502;28;20196;-67
2023/12/29 08:54:57;;;;;;;2.87;2.67;;;10.50;49.30;;;;;;5029497;28;20232;-66
2023/12/29 08:57:23;;;;;;;4.77;3.50;;;10.40;48.60;;;;;;5027740;28;20662;-66
2023/12/29 08:59:51;;;;;;;2.53;2.33;;;10.40;49.00;;;;;;5027433;28;20297;-68
2023/12/29 09:02:17;;;;;;;2.70;2.50;;;10.40;49.10;;;;;;5029742;28;20328;-67
2023/12/29 09:04:44;;;;;;;2.30;2.10;;;10.40;49.20;;;;;;5032209;28;20217;-67
2023/12/29 09:07:10;;;;;;;2.30;2.10;;;10.40;48.70;;;;;;5032865;28;20270;-67
2023/12/29 09:09:37;;;;;;;3.23;2.30;;;10.70;48.30;;;;;;5034019;28;20205;-65
2023/12/29 09:12:03;;;;;;;2.40;2.20;;;10.70;48.10;;;;;;5033633;28;20200;-67
2023/12/29 09:14:32;;;;;;;2.33;2.10;;;10.70;47.70;;;;;;5023006;28;20713;-67
2023/12/29 09:16:58;;;;;;;2.23;2.13;;;10.80;48.00;;;;;;5028355;28;20267;-67
2023/12/29 09:19:25;;;;;;;2.70;2.37;;;10.80;47.80;;;;;;5029815;28;20213;-67
2023/12/29 09:21:52;;;;;;;3.77;2.37;;;10.80;48.10;;;;;;5031120;28;20208;-68
2023/12/29 09:24:18;;;;;;;2.23;2.07;;;10.80;47.80;;;;;;5031010;28;20255;-68
2023/12/29 09:26:45;;;;;;;1.93;1.83;;;10.90;47.80;;;;;;5031672;28;20696;-67
2023/12/29 09:29:11;;;;;;;2.17;1.97;;;10.90;48.10;;;;;;5032210;28;20340;-68
2023/12/29 09:31:38;;;;;;;2.30;2.20;;;10.90;48.30;;;;;;5032089;28;20584;-69
2023/12/29 09:34:11;;;;;;;3.57;2.10;;;10.80;48.20;;;;;;5066561;27;20594;-68
2023/12/29 09:36:38;;;;;;;2.50;2.30;;;10.90;48.50;;;;;;5069237;28;20296;-68
2023/12/29 09:39:04;;;;;;;1.90;1.80;;;10.80;48.10;;;;;;5060491;28;20259;-69
2023/12/29 09:41:31;;;;;;;2.37;2.17;;;10.80;48.30;;;;;;5069072;28;20278;-69
2023/12/29 09:43:57;;;;;;;3.03;2.20;;;10.80;48.20;;;;;;5068786;28;20204;-68
2023/12/29 09:46:24;;;;;;;2.40;1.83;;;10.90;48.30;;;;;;5056997;28;20236;-68
2023/12/29 09:48:52;;;;;;;2.30;2.10;;;10.90;48.30;;;;;;5062467;28;20220;-69
2023/12/29 09:51:22;;;;;;;2.23;2.10;;;10.90;48.10;;;;;;5065177;28;20212;-68
2023/12/29 09:53:49;;;;;;;2.57;2.37;;;10.90;48.50;;;;;;5064469;28;20334;-69
2023/12/29 09:56:15;;;;;;;3.60;2.10;;;10.90;48.20;;;;;;5064403;28;20231;-68
2023/12/29 09:58:42;;;;;;;1.97;1.77;;;11.00;48.20;;;;;;5062192;28;20210;-68
2023/12/29 10:01:08;;;;;;;2.63;1.97;;;11.00;48.00;;;;;;5058807;28;20209;-68
2023/12/29 10:03:35;;;;;;;2.03;1.90;;;11.00;48.10;;;;;;5059975;28;20666;-68
2023/12/29 10:06:02;;;;;;;2.00;1.80;;;11.10;48.10;;;;;;5058960;28;20228;-69
2023/12/29 10:08:28;;;;;;;2.40;2.20;;;11.10;48.10;;;;;;5059235;28;20631;-68
2023/12/29 10:10:55;;;;;;;2.30;2.10;;;11.20;48.10;;;;;;5063921;28;20236;-68
2023/12/29 10:13:22;;;;;;;1.80;1.70;;;11.30;48.30;;;;;;5062424;28;20319;-69
2023/12/29 10:15:48;;;;;;;2.10;1.90;;;11.30;47.90;;;;;;5067391;28;20227;-69
2023/12/29 10:18:15;;;;;;;2.10;1.90;;;11.40;48.30;;;;;;5064355;28;20213;-69
2023/12/29 10:20:42;;;;;;;1.97;1.87;;;11.50;48.20;;;;;;5066012;28;20216;-70
2023/12/29 10:23:09;;;;;;;1.90;1.80;;;11.60;48.20;;;;;;5067352;28;20201;-69
2023/12/29 10:25:35;;;;;;;1.67;1.57;;;11.60;48.00;;;;;;5062440;28;20309;-69
2023/12/29 10:28:02;;;;;;;1.90;1.80;;;11.50;48.60;;;;;;5066379;28;20210;-69
2023/12/29 10:30:29;;;;;;;2.10;2.00;;;11.50;48.60;;;;;;5059005;28;20234;-70
2023/12/29 10:32:55;;;;;;;1.80;1.70;;;11.50;48.80;;;;;;5065709;28;20230;-69
2023/12/29 10:35:22;;;;;;;2.33;1.60;;;11.50;49.20;;;;;;5062780;28;20694;-68
2023/12/29 10:37:48;;;;;;;1.63;1.53;;;11.60;49.10;;;;;;5066444;28;20659;-68
2023/12/29 10:40:15;;;;;;;1.60;1.50;;;11.70;49.00;;;;;;5059405;28;20206;-70
2023/12/29 10:42:41;;;;;;;1.90;1.63;;;11.70;49.10;;;;;;5049952;28;20204;-70
2023/12/29 10:45:08;;;;;;;1.60;1.50;;;11.80;49.00;;;;;;5036872;28;20233;-70
2023/12/29 10:47:35;;;;;;;1.67;1.57;;;11.60;49.30;;;;;;5044826;28;20212;-70
2023/12/29 10:50:01;;;;;;;2.23;1.80;;;11.70;49.50;;;;;;5042301;28;20625;-69
2023/12/29 10:52:28;;;;;;;1.50;1.40;;;11.80;49.30;;;;;;5044586;28;20214;-70
2023/12/29 10:54:54;;;;;;;1.40;1.30;;;11.80;49.10;;;;;;5038858;28;20803;-70
2023/12/29 10:57:21;;;;;;;1.50;1.40;;;11.90;49.10;;;;;;5040831;28;20230;-70
2023/12/29 10:59:48;;;;;;;2.27;1.60;;;11.90;49.30;;;;;;5049769;28;20215;-70
2023/12/29 11:02:15;;;;;;;1.70;1.60;;;11.90;49.10;;;;;;5049592;28;20249;-70
2023/12/29 11:04:42;;;;;;;1.80;1.70;;;12.00;49.20;;;;;;5043016;28;20206;-70
2023/12/29 11:07:09;;;;;;;1.80;1.70;;;11.90;49.00;;;;;;5052585;28;20700;-70
2023/12/29 11:09:36;;;;;;;1.60;1.50;;;11.90;49.40;;;;;;5047194;28;20631;-69
2023/12/29 11:12:02;;;;;;;1.70;1.57;;;11.90;49.10;;;;;;5051342;28;20210;-69
2023/12/29 11:14:29;;;;;;;1.63;1.53;;;12.00;49.30;;;;;;5048531;28;20223;-70
2023/12/29 11:16:55;;;;;;;2.87;1.87;;;12.20;48.60;;;;;;5044696;28;20236;-69
2023/12/29 11:19:22;;;;;;;3.07;1.50;;;12.30;48.50;;;;;;5047772;28;20665;-69
2023/12/29 11:21:49;;;;;;;1.90;1.53;;;12.20;48.10;;;;;;5047565;28;20266;-68
2023/12/29 11:24:15;;;;;;;1.80;1.70;;;12.30;47.70;;;;;;5050441;28;20234;-70
2023/12/29 11:26:42;;;;;;;2.97;1.73;;;12.60;47.20;;;;;;5048797;28;20230;-69
2023/12/29 11:29:08;;;;;;;1.40;1.40;;;12.50;47.10;;;;;;5047124;28;20268;-69
2023/12/29 11:31:37;;;;;;;1.80;1.70;;;12.70;47.40;;;;;;5040951;28;20213;-70
2023/12/29 11:34:04;;;;;;;1.87;1.50;;;13.00;46.20;;;;;;5040177;28;20230;-67
2023/12/29 11:36:30;;;;;;;2.70;1.70;;;13.00;46.00;;;;;;5046722;28;20316;-67
2023/12/29 11:38:57;;;;;;;1.70;1.60;;;13.30;45.90;;;;;;5043232;28;20663;-67
2023/12/29 11:41:23;;;;;;;1.83;1.73;;;13.40;45.30;;;;;;5043259;28;20303;-67
2023/12/29 11:43:51;;;;;;;1.60;1.50;;;13.60;44.70;;;;;;5044649;28;20206;-67
2023/12/29 11:46:18;;;;;;;2.47;1.83;;;13.40;44.60;;;;;;5035340;28;20229;-67
2023/12/29 11:48:44;;;;;;;1.70;1.60;;;13.20;45.30;;;;;;5038396;28;20201;-67
2023/12/29 11:51:11;;;;;;;2.33;1.73;;;13.10;45.30;;;;;;5049260;28;20287;-67
2023/12/29 11:53:37;;;;;;;1.70;1.60;;;13.10;45.70;;;;;;5043982;28;20223;-68
2023/12/29 11:56:04;;;;;;;1.77;1.67;;;13.50;45.10;;;;;;5046979;28;20236;-69
2023/12/29 11:58:31;;;;;;;1.80;1.70;;;13.60;44.20;;;;;;5051108;28;20210;-68
2023/12/29 12:00:58;;;;;;;1.70;1.60;;;13.70;44.40;;;;;;5048538;28;20202;-68
2023/12/29 12:03:24;;;;;;;1.70;1.60;;;13.60;44.40;;;;;;5051989;28;20638;-68
2023/12/29 12:05:51;;;;;;;1.70;1.60;;;13.20;45.20;;;;;;5048130;28;20290;-68
2023/12/29 12:08:17;;;;;;;1.73;1.63;;;13.30;45.30;;;;;;5047193;28;20205;-68
2023/12/29 12:10:44;;;;;;;1.87;1.77;;;13.10;45.80;;;;;;5047197;28;20205;-68
2023/12/29 12:13:10;;;;;;;1.70;1.60;;;12.90;46.00;;;;;;5047384;28;20220;-67
2023/12/29 12:15:37;;;;;;;1.67;1.57;;;12.90;46.10;;;;;;5046818;28;20275;-68
2023/12/29 12:18:06;;;;;;;1.70;1.60;;;12.90;46.20;;;;;;5050859;28;20201;-67
2023/12/29 12:20:32;;;;;;;2.17;1.67;;;12.70;46.30;;;;;;5039572;28;20213;-68
2023/12/29 12:22:59;;;;;;;1.50;1.40;;;12.60;46.80;;;;;;5045094;28;20316;-67
2023/12/29 12:25:25;;;;;;;2.00;1.90;;;12.60;46.80;;;;;;5047049;28;20224;-71
2023/12/29 12:27:52;;;;;;;1.70;1.60;;;12.60;46.90;;;;;;5043157;28;20210;-68
2023/12/29 12:30:18;;;;;;;1.90;1.80;;;12.50;46.80;;;;;;5048499;28;20208;-68
2023/12/29 12:32:45;;;;;;;1.63;1.53;;;12.50;47.20;;;;;;5050113;28;20887;-68
2023/12/29 12:35:11;;;;;;;1.83;1.50;;;12.30;46.50;;;;;;5050081;28;20226;-68
2023/12/29 12:37:38;;;;;;;1.83;1.70;;;12.40;46.80;;;;;;5046966;28;20630;-68
2023/12/29 12:40:05;;;;;;;4.77;2.27;;;12.30;47.00;;;;;;5040411;28;20292;-70
2023/12/29 12:42:33;;;;;;;1.70;1.60;;;12.20;47.10;;;;;;5041143;28;20670;-68
2023/12/29 12:45:00;;;;;;;1.87;1.77;;;12.20;47.40;;;;;;5043185;28;20236;-68
2023/12/29 12:47:26;;;;;;;2.40;1.67;;;12.20;47.40;;;;;;5050701;28;20225;-68
2023/12/29 12:49:53;;;;;;;2.17;1.80;;;12.20;47.00;;;;;;5051937;28;20328;-68